Max Winner — 9HA4071 — position and weather

sailwx.info

Track history (hours):
 
Tides and Currents Weather Stations Pressure Air Temp Water Temp Dewpoint Dewpoint Depression Visibility Wind Speed Wind Dir Waves Ship Positions

Max Winner

Last reported at 2017-Sep-05 18:36 UTC. Time now 2017-Sep-24 03:34 UTC.
Position N 25°23' W 018°28'.
Warning: this ship's position is 18 days out of date.

Length 162 m; draft 8.9 m.

Type: Ship (hazmat cat A). MMSI: 249052000.

Date/timePositionNaut miles runAvg speedWind from/ knotsBaromVisibWave heightAir tempDewpointWater temp
2017-Sep-05 18:36N 25°23' W 018°28'16516.9
2017-Sep-05 08:49N 27°37' W 016°39'717.1
2017-Sep-05 08:23N 27°43' W 016°35'1617.2
2017-Sep-05 07:27N 27°56' W 016°24'817.3
2017-Sep-05 06:59N 28°02' W 016°19'1917.4
2017-Sep-05 05:54N 28°16' W 016°05'717.6
2017-Sep-05 05:30N 28°22' W 015°60'917.5
2017-Sep-05 05:00N 28°29' W 015°53'917.1
2017-Sep-05 04:29N 28°35' W 015°47'817.2
2017-Sep-05 04:00N 28°41' W 015°40'917.1
2017-Sep-05 03:30N 28°47' W 015°33'917.3
2017-Sep-05 03:00N 28°53' W 015°26'917.5
2017-Sep-05 02:30N 28°59' W 015°19'917.4
2017-Sep-05 02:00N 29°05' W 015°12'917.2
2017-Sep-05 01:30N 29°11' W 015°04'816.9
2017-Sep-05 01:00N 29°16' W 014°57'816.9
2017-Sep-05 00:30N 29°22' W 014°50'917.1
2017-Sep-05 00:00N 29°28' W 014°43'917.4
2017-Sep-04 23:30N 29°34' W 014°36'917.3
2017-Sep-04 22:58N 29°41' W 014°28'817.3
2017-Sep-04 22:30N 29°46' W 014°21'917.1
2017-Sep-04 22:00N 29°52' W 014°14'1117.1
2017-Sep-04 21:21N 29°60' W 014°05'617.1
2017-Sep-04 21:00N 30°04' W 013°60'917.0
2017-Sep-04 20:30N 30°09' W 013°52'917.5
2017-Sep-04 20:00N 30°15' W 013°45'917.3
2017-Sep-04 19:30N 30°21' W 013°38'917.2
2017-Sep-04 19:00N 30°27' W 013°31'817.0
2017-Sep-04 18:30N 30°33' W 013°23'816.7
2017-Sep-04 18:00N 30°39' W 013°16'816.8
2017-Sep-04 17:30N 30°44' W 013°09'916.7
2017-Sep-04 16:57N 30°51' W 013°01'816.8
2017-Sep-04 16:30N 30°56' W 012°55'816.9
2017-Sep-04 16:00N 31°02' W 012°48'917.5
2017-Sep-04 15:30N 31°09' W 012°42'612.5
2017-Sep-04 15:01N 31°14' W 012°37'612.3
2017-Sep-04 14:29N 31°18' W 012°32'917.5
2017-Sep-04 14:00N 31°25' W 012°26'817.3
2017-Sep-04 13:30N 31°32' W 012°19'917.3
2017-Sep-04 13:00N 31°38' W 012°13'2716.4
2017-Sep-04 11:21N 31°55' W 011°47'2616.6
2017-Sep-04 09:47N 32°10' W 011°23'516.7
2017-Sep-04 09:30N 32°13' W 011°18'5517.3
2017-Sep-04 06:22N 32°49' W 010°30'617.2
2017-Sep-04 06:00N 32°53' W 010°24'917.2
2017-Sep-04 05:30N 32°59' W 010°17'917.1
2017-Sep-04 05:00N 33°04' W 010°09'816.9
2017-Sep-04 04:30N 33°10' W 010°02'817.0
2017-Sep-04 04:00N 33°16' W 009°54'917.0
2017-Sep-04 03:30N 33°21' W 009°47'917.2
2017-Sep-04 03:00N 33°27' W 009°39'917.3
2017-Sep-04 02:29N 33°34' W 009°31'1917.4
2017-Sep-04 01:23N 33°46' W 009°14'717.3
2017-Sep-04 01:00N 33°50' W 009°08'1417.1
2017-Sep-04 00:11N 33°59' W 008°55'417.2
2017-Sep-03 23:57N 34°02' W 008°51'817.4
2017-Sep-03 23:30N 34°08' W 008°44'817.3
2017-Sep-03 23:00N 34°13' W 008°37'917.1
2017-Sep-03 22:29N 34°19' W 008°29'817.2
2017-Sep-03 22:00N 34°24' W 008°21'1117.4
2017-Sep-03 21:23N 34°31' W 008°11'717.4
2017-Sep-03 21:00N 34°36' W 008°05'1017.5
2017-Sep-03 20:25N 34°43' W 007°56'717.5
2017-Sep-03 20:00N 34°48' W 007°49'917.4
2017-Sep-03 19:30N 34°53' W 007°41'917.3
2017-Sep-03 19:00N 34°59' W 007°34'817.0
2017-Sep-03 18:30N 35°05' W 007°26'917.2
2017-Sep-03 18:00N 35°11' W 007°18'917.5
2017-Sep-03 17:30N 35°16' W 007°10'917.8
2017-Sep-03 17:00N 35°22' W 007°02'917.5
2017-Sep-03 16:30N 35°28' W 006°54'5916.2
2017-Sep-03 12:51N 35°58' W 005°51'1116.2
2017-Sep-03 12:11N 35°58' W 005°37'316.8
2017-Sep-03 12:00N 35°58' W 005°34'816.4
2017-Sep-03 11:30N 36°02' W 005°24'8 2.1
2017-Sep-03 07:50N 36°10' W 005°25'0 0.1
2017-Sep-03 07:29N 36°10' W 005°25'0 0.0
2017-Sep-03 06:59N 36°09' W 005°25'0 0.1
2017-Sep-03 06:11N 36°09' W 005°25'0 0.1
2017-Sep-03 05:53N 36°09' W 005°25'0 0.1
2017-Sep-03 05:23N 36°09' W 005°25'0 0.0
2017-Sep-03 04:53N 36°09' W 005°25'0 0.1
2017-Sep-03 04:29N 36°09' W 005°25'0 0.3
2017-Sep-03 04:01N 36°09' W 005°25'1 1.1
2017-Sep-03 02:41N 36°08' W 005°26'0 0.0
2017-Sep-02 22:53N 36°08' W 005°26'2 0.3
2017-Sep-02 18:09N 36°08' W 005°24'1 4.5
2017-Sep-02 18:01N 36°08' W 005°24'1 1.8
2017-Sep-02 17:31N 36°07' W 005°23'1 2.8
2017-Sep-02 17:01N 36°05' W 005°24'0 0.9
2017-Sep-02 16:31N 36°05' W 005°23'0 0.7
2017-Sep-02 16:01N 36°05' W 005°23'2 3.8
2017-Sep-02 15:31N 36°04' W 005°21'5 9.3
2017-Sep-02 15:01N 36°06' W 005°16'13 0.3
2017-Sep-01 01:01N 36°12' W 005°02'111.4
2017-Sep-01 00:58N 36°12' W 005°03'511.3
2017-Sep-01 00:30N 36°12' W 005°09'1 1.7
2017-Aug-31 23:59N 36°12' W 005°10'0 0.7
2017-Aug-31 23:23N 36°12' W 005°10'0 0.5
2017-Aug-31 22:56N 36°12' W 005°10'0 0.5
2017-Aug-31 22:29N 36°12' W 005°09'1 0.4
2017-Aug-31 20:59N 36°13' W 005°09'0 0.3
2017-Aug-31 20:14N 36°13' W 005°09'0 0.3
2017-Aug-31 19:59N 36°13' W 005°09'0 0.2
2017-Aug-31 19:26N 36°13' W 005°08'0 0.2
2017-Aug-31 18:53N 36°13' W 005°08'0 0.4
2017-Aug-31 18:29N 36°13' W 005°08'0 0.5
2017-Aug-31 17:56N 36°13' W 005°08'0 0.5
2017-Aug-31 17:11N 36°13' W 005°08'0 0.5
2017-Aug-31 16:44N 36°13' W 005°07'0 0.5
2017-Aug-31 16:26N 36°13' W 005°07'0 0.5
2017-Aug-31 15:59N 36°13' W 005°07'0 0.4
2017-Aug-31 15:23N 36°13' W 005°06'0 0.4
2017-Aug-31 14:47N 36°13' W 005°06'0 0.4
2017-Aug-31 14:26N 36°13' W 005°06'0 0.3
2017-Aug-31 13:50N 36°13' W 005°06'0 0.5
2017-Aug-31 13:14N 36°13' W 005°06'0 0.3
2017-Aug-31 12:59N 36°13' W 005°06'2 0.2
2017-Aug-31 00:17N 36°12' W 005°03'2 1.3
2017-Aug-30 23:03N 36°11' W 005°03'110.0
2017-Aug-30 22:54N 36°10' W 005°04'410.6
2017-Aug-30 22:30N 36°07' W 005°08'611.7
2017-Aug-30 22:00N 36°04' W 005°15'611.4
2017-Aug-30 21:30N 36°00' W 005°19'612.4
2017-Aug-30 21:00N 35°58' W 005°27'612.1
2017-Aug-30 20:29N 35°56' W 005°34'1711.2
2017-Aug-30 18:57N 35°55' W 005°55'181 9.0
2017-Aug-29 22:42N 37°12' W 009°19'411.2
2017-Aug-29 22:20N 37°16' W 009°16'411.1
2017-Aug-29 22:00N 37°19' W 009°16'611.3
2017-Aug-29 21:30N 37°25' W 009°17'611.0
2017-Aug-29 20:58N 37°31' W 009°17'511.1
2017-Aug-29 20:29N 37°36' W 009°18'510.9
2017-Aug-29 20:00N 37°41' W 009°19'510.6
2017-Aug-29 19:30N 37°46' W 009°20'510.4
2017-Aug-29 19:00N 37°52' W 009°21'510.4
2017-Aug-29 18:30N 37°57' W 009°21'510.3
2017-Aug-29 18:00N 38°02' W 009°22'510.3
2017-Aug-29 17:30N 38°07' W 009°23'510.3
2017-Aug-29 17:00N 38°12' W 009°24'510.8
2017-Aug-29 16:30N 38°18' W 009°25'611.0
2017-Aug-29 16:00N 38°23' W 009°25'510.5
2017-Aug-29 15:30N 38°28' W 009°24'510.7
2017-Aug-29 15:00N 38°34' W 009°24'5 9.9
2017-Aug-29 14:30N 38°38' W 009°21'5 9.7
2017-Aug-29 14:00N 38°41' W 009°16'4 8.2
2017-Aug-29 13:30N 38°42' W 009°11'1 0.5
2017-Aug-29 11:36N 38°42' W 009°10'0 0.0
2017-Aug-29 11:12N 38°42' W 009°10'0 0.0
2017-Aug-29 09:49N 38°42' W 009°10'0 0.0
2017-Aug-29 09:03N 38°42' W 009°10'0 0.0
2017-Aug-29 08:57N 38°42' W 009°10'0 0.0
2017-Aug-29 08:27N 38°42' W 009°10'0 0.0
2017-Aug-29 07:57N 38°42' W 009°10'0 0.0
2017-Aug-29 07:27N 38°42' W 009°10'0 0.0
2017-Aug-29 07:00N 38°42' W 009°10'0 0.0
2017-Aug-29 06:27N 38°42' W 009°10'0 0.0
2017-Aug-29 05:57N 38°42' W 009°10'0 0.8
2017-Aug-29 05:30N 38°42' W 009°10'4 7.9
2017-Aug-29 04:58N 38°41' W 009°15'510.6
2017-Aug-29 04:30N 38°39' W 009°20'4 7.8
2017-Aug-29 04:00N 38°36' W 009°25'3 5.2
2017-Aug-29 03:30N 38°37' W 009°28'4 8.6
2017-Aug-29 03:00N 38°37' W 009°33'4 9.0
2017-Aug-29 02:30N 38°38' W 009°39'4 8.8
2017-Aug-29 02:00N 38°41' W 009°43'510.6
2017-Aug-29 01:30N 38°46' W 009°43'510.8
2017-Aug-29 01:00N 38°51' W 009°44'611.1
2017-Aug-29 00:30N 38°57' W 009°44'611.3
2017-Aug-29 00:00N 39°03' W 009°44'611.2
2017-Aug-28 23:30N 39°08' W 009°44'611.8
2017-Aug-28 23:00N 39°14' W 009°43'611.6
2017-Aug-28 22:30N 39°20' W 009°43'611.1
2017-Aug-28 21:58N 39°26' W 009°44'156 4.5
2017-Aug-27 11:05N 41°59' W 009°03'310.6
2017-Aug-27 10:50N 42°01' W 009°02'410.6
2017-Aug-27 10:28N 42°05' W 009°01'610.6
2017-Aug-27 09:52N 42°11' W 008°59'  
Track history (hours):
 
Tides and Currents Weather Stations Pressure Air Temp Water Temp Dewpoint Dewpoint Depression Visibility Wind Speed Wind Dir Waves Ship Positions

Max Winner

Last reported at 2017-Sep-05 18:36 UTC. Time now 2017-Sep-24 03:34 UTC.
Position N 25°23' W 018°28'.
Warning: this ship's position is 18 days out of date.

Length 162 m; draft 8.9 m.

Type: Ship (hazmat cat A). MMSI: 249052000.

Date/timePositionNaut miles runAvg speedWind from/ knotsBaromVisibWave heightAir tempDewpointWater temp
2017-Sep-05 18:36N 25°23' W 018°28'16516.9
2017-Sep-05 08:49N 27°37' W 016°39'717.1
2017-Sep-05 08:23N 27°43' W 016°35'1617.2
2017-Sep-05 07:27N 27°56' W 016°24'817.3
2017-Sep-05 06:59N 28°02' W 016°19'1917.4
2017-Sep-05 05:54N 28°16' W 016°05'717.6
2017-Sep-05 05:30N 28°22' W 015°60'917.5
2017-Sep-05 05:00N 28°29' W 015°53'917.1
2017-Sep-05 04:29N 28°35' W 015°47'817.2
2017-Sep-05 04:00N 28°41' W 015°40'917.1
2017-Sep-05 03:30N 28°47' W 015°33'917.3
2017-Sep-05 03:00N 28°53' W 015°26'917.5
2017-Sep-05 02:30N 28°59' W 015°19'917.4
2017-Sep-05 02:00N 29°05' W 015°12'917.2
2017-Sep-05 01:30N 29°11' W 015°04'816.9
2017-Sep-05 01:00N 29°16' W 014°57'816.9
2017-Sep-05 00:30N 29°22' W 014°50'917.1
2017-Sep-05 00:00N 29°28' W 014°43'917.4
2017-Sep-04 23:30N 29°34' W 014°36'917.3
2017-Sep-04 22:58N 29°41' W 014°28'817.3
2017-Sep-04 22:30N 29°46' W 014°21'917.1
2017-Sep-04 22:00N 29°52' W 014°14'1117.1
2017-Sep-04 21:21N 29°60' W 014°05'617.1
2017-Sep-04 21:00N 30°04' W 013°60'917.0
2017-Sep-04 20:30N 30°09' W 013°52'917.5
2017-Sep-04 20:00N 30°15' W 013°45'917.3
2017-Sep-04 19:30N 30°21' W 013°38'917.2
2017-Sep-04 19:00N 30°27' W 013°31'817.0
2017-Sep-04 18:30N 30°33' W 013°23'816.7
2017-Sep-04 18:00N 30°39' W 013°16'816.8
2017-Sep-04 17:30N 30°44' W 013°09'916.7
2017-Sep-04 16:57N 30°51' W 013°01'816.8
2017-Sep-04 16:30N 30°56' W 012°55'816.9
2017-Sep-04 16:00N 31°02' W 012°48'917.5
2017-Sep-04 15:30N 31°09' W 012°42'612.5
2017-Sep-04 15:01N 31°14' W 012°37'612.3
2017-Sep-04 14:29N 31°18' W 012°32'917.5
2017-Sep-04 14:00N 31°25' W 012°26'817.3
2017-Sep-04 13:30N 31°32' W 012°19'917.3
2017-Sep-04 13:00N 31°38' W 012°13'2716.4
2017-Sep-04 11:21N 31°55' W 011°47'2616.6
2017-Sep-04 09:47N 32°10' W 011°23'516.7
2017-Sep-04 09:30N 32°13' W 011°18'5517.3
2017-Sep-04 06:22N 32°49' W 010°30'617.2
2017-Sep-04 06:00N 32°53' W 010°24'917.2
2017-Sep-04 05:30N 32°59' W 010°17'917.1
2017-Sep-04 05:00N 33°04' W 010°09'816.9
2017-Sep-04 04:30N 33°10' W 010°02'817.0
2017-Sep-04 04:00N 33°16' W 009°54'917.0
2017-Sep-04 03:30N 33°21' W 009°47'917.2
2017-Sep-04 03:00N 33°27' W 009°39'917.3
2017-Sep-04 02:29N 33°34' W 009°31'1917.4
2017-Sep-04 01:23N 33°46' W 009°14'717.3
2017-Sep-04 01:00N 33°50' W 009°08'1417.1
2017-Sep-04 00:11N 33°59' W 008°55'417.2
2017-Sep-03 23:57N 34°02' W 008°51'817.4
2017-Sep-03 23:30N 34°08' W 008°44'817.3
2017-Sep-03 23:00N 34°13' W 008°37'917.1
2017-Sep-03 22:29N 34°19' W 008°29'817.2
2017-Sep-03 22:00N 34°24' W 008°21'1117.4
2017-Sep-03 21:23N 34°31' W 008°11'717.4
2017-Sep-03 21:00N 34°36' W 008°05'1017.5
2017-Sep-03 20:25N 34°43' W 007°56'717.5
2017-Sep-03 20:00N 34°48' W 007°49'917.4
2017-Sep-03 19:30N 34°53' W 007°41'917.3
2017-Sep-03 19:00N 34°59' W 007°34'817.0
2017-Sep-03 18:30N 35°05' W 007°26'917.2
2017-Sep-03 18:00N 35°11' W 007°18'917.5
2017-Sep-03 17:30N 35°16' W 007°10'917.8
2017-Sep-03 17:00N 35°22' W 007°02'917.5
2017-Sep-03 16:30N 35°28' W 006°54'5916.2
2017-Sep-03 12:51N 35°58' W 005°51'1116.2
2017-Sep-03 12:11N 35°58' W 005°37'316.8
2017-Sep-03 12:00N 35°58' W 005°34'816.4
2017-Sep-03 11:30N 36°02' W 005°24'8 2.1
2017-Sep-03 07:50N 36°10' W 005°25'0 0.1
2017-Sep-03 07:29N 36°10' W 005°25'0 0.0
2017-Sep-03 06:59N 36°09' W 005°25'0 0.1
2017-Sep-03 06:11N 36°09' W 005°25'0 0.1
2017-Sep-03 05:53N 36°09' W 005°25'0 0.1
2017-Sep-03 05:23N 36°09' W 005°25'0 0.0
2017-Sep-03 04:53N 36°09' W 005°25'0 0.1
2017-Sep-03 04:29N 36°09' W 005°25'0 0.3
2017-Sep-03 04:01N 36°09' W 005°25'1 1.1
2017-Sep-03 02:41N 36°08' W 005°26'0 0.0
2017-Sep-02 22:53N 36°08' W 005°26'2 0.3
2017-Sep-02 18:09N 36°08' W 005°24'1 4.5
2017-Sep-02 18:01N 36°08' W 005°24'1 1.8
2017-Sep-02 17:31N 36°07' W 005°23'1 2.8
2017-Sep-02 17:01N 36°05' W 005°24'0 0.9
2017-Sep-02 16:31N 36°05' W 005°23'0 0.7
2017-Sep-02 16:01N 36°05' W 005°23'2 3.8
2017-Sep-02 15:31N 36°04' W 005°21'5 9.3
2017-Sep-02 15:01N 36°06' W 005°16'13 0.3
2017-Sep-01 01:01N 36°12' W 005°02'111.4
2017-Sep-01 00:58N 36°12' W 005°03'511.3
2017-Sep-01 00:30N 36°12' W 005°09'1 1.7
2017-Aug-31 23:59N 36°12' W 005°10'0 0.7
2017-Aug-31 23:23N 36°12' W 005°10'0 0.5
2017-Aug-31 22:56N 36°12' W 005°10'0 0.5
2017-Aug-31 22:29N 36°12' W 005°09'1 0.4
2017-Aug-31 20:59N 36°13' W 005°09'0 0.3
2017-Aug-31 20:14N 36°13' W 005°09'0 0.3
2017-Aug-31 19:59N 36°13' W 005°09'0 0.2
2017-Aug-31 19:26N 36°13' W 005°08'0 0.2
2017-Aug-31 18:53N 36°13' W 005°08'0 0.4
2017-Aug-31 18:29N 36°13' W 005°08'0 0.5
2017-Aug-31 17:56N 36°13' W 005°08'0 0.5
2017-Aug-31 17:11N 36°13' W 005°08'0 0.5
2017-Aug-31 16:44N 36°13' W 005°07'0 0.5
2017-Aug-31 16:26N 36°13' W 005°07'0 0.5
2017-Aug-31 15:59N 36°13' W 005°07'0 0.4
2017-Aug-31 15:23N 36°13' W 005°06'0 0.4
2017-Aug-31 14:47N 36°13' W 005°06'0 0.4
2017-Aug-31 14:26N 36°13' W 005°06'0 0.3
2017-Aug-31 13:50N 36°13' W 005°06'0 0.5
2017-Aug-31 13:14N 36°13' W 005°06'0 0.3
2017-Aug-31 12:59N 36°13' W 005°06'2 0.2
2017-Aug-31 00:17N 36°12' W 005°03'2 1.3
2017-Aug-30 23:03N 36°11' W 005°03'110.0
2017-Aug-30 22:54N 36°10' W 005°04'410.6
2017-Aug-30 22:30N 36°07' W 005°08'611.7
2017-Aug-30 22:00N 36°04' W 005°15'611.4
2017-Aug-30 21:30N 36°00' W 005°19'612.4
2017-Aug-30 21:00N 35°58' W 005°27'612.1
2017-Aug-30 20:29N 35°56' W 005°34'1711.2
2017-Aug-30 18:57N 35°55' W 005°55'181 9.0
2017-Aug-29 22:42N 37°12' W 009°19'411.2
2017-Aug-29 22:20N 37°16' W 009°16'411.1
2017-Aug-29 22:00N 37°19' W 009°16'611.3
2017-Aug-29 21:30N 37°25' W 009°17'611.0
2017-Aug-29 20:58N 37°31' W 009°17'511.1
2017-Aug-29 20:29N 37°36' W 009°18'510.9
2017-Aug-29 20:00N 37°41' W 009°19'510.6
2017-Aug-29 19:30N 37°46' W 009°20'510.4
2017-Aug-29 19:00N 37°52' W 009°21'510.4
2017-Aug-29 18:30N 37°57' W 009°21'510.3
2017-Aug-29 18:00N 38°02' W 009°22'510.3
2017-Aug-29 17:30N 38°07' W 009°23'510.3
2017-Aug-29 17:00N 38°12' W 009°24'510.8
2017-Aug-29 16:30N 38°18' W 009°25'611.0
2017-Aug-29 16:00N 38°23' W 009°25'510.5
2017-Aug-29 15:30N 38°28' W 009°24'510.7
2017-Aug-29 15:00N 38°34' W 009°24'5 9.9
2017-Aug-29 14:30N 38°38' W 009°21'5 9.7
2017-Aug-29 14:00N 38°41' W 009°16'4 8.2
2017-Aug-29 13:30N 38°42' W 009°11'1 0.5
2017-Aug-29 11:36N 38°42' W 009°10'0 0.0
2017-Aug-29 11:12N 38°42' W 009°10'0 0.0
2017-Aug-29 09:49N 38°42' W 009°10'0 0.0
2017-Aug-29 09:03N 38°42' W 009°10'0 0.0
2017-Aug-29 08:57N 38°42' W 009°10'0 0.0
2017-Aug-29 08:27N 38°42' W 009°10'0 0.0
2017-Aug-29 07:57N 38°42' W 009°10'0 0.0
2017-Aug-29 07:27N 38°42' W 009°10'0 0.0
2017-Aug-29 07:00N 38°42' W 009°10'0 0.0
2017-Aug-29 06:27N 38°42' W 009°10'0 0.0
2017-Aug-29 05:57N 38°42' W 009°10'0 0.8
2017-Aug-29 05:30N 38°42' W 009°10'4 7.9
2017-Aug-29 04:58N 38°41' W 009°15'510.6
2017-Aug-29 04:30N 38°39' W 009°20'4 7.8
2017-Aug-29 04:00N 38°36' W 009°25'3 5.2
2017-Aug-29 03:30N 38°37' W 009°28'4 8.6
2017-Aug-29 03:00N 38°37' W 009°33'4 9.0
2017-Aug-29 02:30N 38°38' W 009°39'4 8.8
2017-Aug-29 02:00N 38°41' W 009°43'510.6
2017-Aug-29 01:30N 38°46' W 009°43'510.8
2017-Aug-29 01:00N 38°51' W 009°44'611.1
2017-Aug-29 00:30N 38°57' W 009°44'611.3
2017-Aug-29 00:00N 39°03' W 009°44'611.2
2017-Aug-28 23:30N 39°08' W 009°44'611.8
2017-Aug-28 23:00N 39°14' W 009°43'611.6
2017-Aug-28 22:30N 39°20' W 009°43'611.1
2017-Aug-28 21:58N 39°26' W 009°44'156 4.5
2017-Aug-27 11:05N 41°59' W 009°03'310.6
2017-Aug-27 10:50N 42°01' W 009°02'410.6
2017-Aug-27 10:28N 42°05' W 009°01'610.6
2017-Aug-27 09:52N 42°11' W 008°59'  

Dump ship's entire track history